Time;durP1;ratioP1;P1;durP2;ratioP2;P2;SDS_P1;SDS_P2;PMS_P1;PMS_P2;Temp;Humidity;BMP_temperature;BMP_pressure;BME280_temperature;BME280_humidity;BME280_pressure;Samples;Min_cycle;Max_cycle;Signal;HPM_P1;HPM_P2
2021/05/12 00:01:45;;;;;;;10.57;6.22;;;16.60;99.90;;;;;;4995170;28;20037;-79
2021/05/12 00:04:10;;;;;;;14.80;6.32;;;16.60;99.90;;;;;;4993962;28;20121;-79
2021/05/12 00:06:36;;;;;;;11.00;5.90;;;16.60;99.90;;;;;;4992762;28;20439;-78
2021/05/12 00:09:02;;;;;;;9.07;5.32;;;16.60;99.90;;;;;;4993444;28;20413;-78
2021/05/12 00:11:28;;;;;;;11.57;6.22;;;16.50;99.90;;;;;;5018174;28;20046;-79
2021/05/12 00:13:54;;;;;;;10.07;6.15;;;16.50;99.90;;;;;;5018317;28;20478;-79
2021/05/12 00:16:19;;;;;;;11.80;5.43;;;16.50;99.90;;;;;;5001091;28;20053;-78
2021/05/12 00:18:46;;;;;;;5.68;4.15;;;16.50;99.90;;;;;;5009837;28;20034;-77
2021/05/12 00:21:22;;;;;;;7.15;3.90;;;16.50;99.90;;;;;;4998247;28;20014;-78
2021/05/12 00:23:58;;;;;;;4.18;3.40;;;16.50;99.90;;;;;;5010223;28;20025;-78
2021/05/12 00:26:23;;;;;;;6.68;3.83;;;16.50;99.90;;;;;;5009785;28;20045;-78
2021/05/12 00:28:49;;;;;;;5.88;4.15;;;16.40;99.90;;;;;;5016201;28;20038;-78
2021/05/12 00:31:16;;;;;;;7.45;3.38;;;16.40;99.90;;;;;;5009458;28;20033;-78
2021/05/12 00:33:41;;;;;;;3.97;3.00;;;16.40;99.90;;;;;;4999014;28;20052;-77
2021/05/12 00:36:07;;;;;;;3.78;3.22;;;16.40;99.90;;;;;;5015814;28;20030;-79
2021/05/12 00:38:33;;;;;;;5.53;3.25;;;16.40;99.90;;;;;;5034537;28;20010;-78
2021/05/12 00:40:59;;;;;;;3.78;3.00;;;16.40;99.90;;;;;;5026480;28;20038;-78
2021/05/12 00:43:25;;;;;;;2.55;2.35;;;16.50;99.90;;;;;;5015473;28;20037;-78
2021/05/12 00:45:51;;;;;;;4.47;2.45;;;16.60;99.90;;;;;;5008130;28;20035;-78
2021/05/12 00:48:16;;;;;;;5.78;2.58;;;16.50;99.90;;;;;;5015665;28;20034;-77
2021/05/12 00:50:42;;;;;;;4.18;2.55;;;16.60;99.90;;;;;;5013088;28;20045;-78
2021/05/12 00:53:08;;;;;;;3.05;2.75;;;16.70;99.90;;;;;;5015001;28;20044;-79
2021/05/12 00:55:34;;;;;;;3.38;2.50;;;16.80;99.90;;;;;;4998543;28;20014;-78
2021/05/12 00:58:00;;;;;;;2.75;2.53;;;16.70;99.90;;;;;;5010361;28;20022;-78
2021/05/12 01:00:28;;;;;;;3.00;2.58;;;16.70;99.90;;;;;;5014157;28;20085;-79
2021/05/12 01:02:54;;;;;;;3.78;3.00;;;16.60;99.90;;;;;;4997792;28;20102;-79
2021/05/12 01:05:22;;;;;;;5.78;2.85;;;16.70;99.90;;;;;;4992948;28;20041;-79
2021/05/12 01:07:48;;;;;;;6.88;2.75;;;16.70;99.90;;;;;;5011926;28;20035;-79
2021/05/12 01:10:14;;;;;;;3.95;2.58;;;16.80;99.90;;;;;;5016340;28;20029;-77
2021/05/12 01:12:40;;;;;;;2.60;2.20;;;16.80;99.90;;;;;;5014339;28;20025;-78
2021/05/12 01:15:06;;;;;;;6.55;3.13;;;16.80;99.90;;;;;;4998623;28;20057;-78
2021/05/12 01:17:32;;;;;;;4.38;2.85;;;16.80;99.90;;;;;;4996398;28;20032;-77
2021/05/12 01:19:57;;;;;;;3.25;2.40;;;16.90;99.90;;;;;;5015111;28;20042;-78
2021/05/12 01:22:23;;;;;;;5.18;2.90;;;17.00;99.90;;;;;;4999217;28;20515;-79
2021/05/12 01:24:49;;;;;;;5.72;2.55;;;17.00;99.90;;;;;;4996039;28;20057;-79
2021/05/12 01:27:15;;;;;;;6.18;2.13;;;17.00;99.90;;;;;;4992797;28;20484;-79
2021/05/12 01:29:41;;;;;;;4.88;2.08;;;16.90;99.90;;;;;;5015460;28;20022;-79
2021/05/12 01:32:10;;;;;;;2.80;2.53;;;16.90;99.90;;;;;;5010499;28;20081;-76
2021/05/12 01:34:38;;;;;;;2.67;2.47;;;16.80;99.90;;;;;;5010317;28;20125;-79
2021/05/12 01:37:04;;;;;;;2.70;2.33;;;16.70;99.90;;;;;;4994175;28;20116;-79
2021/05/12 01:39:30;;;;;;;4.15;2.15;;;16.80;99.90;;;;;;5017087;28;20488;-79
2021/05/12 01:41:55;;;;;;;2.95;2.20;;;16.80;99.90;;;;;;4998337;28;20033;-79
2021/05/12 01:44:22;;;;;;;5.40;2.92;;;16.80;99.90;;;;;;5013729;28;20097;-78
2021/05/12 01:46:48;;;;;;;3.28;2.05;;;16.80;99.90;;;;;;5014751;28;20120;-81
2021/05/12 01:49:14;;;;;;;2.75;1.92;;;16.80;99.90;;;;;;4998032;28;20073;-80
2021/05/12 01:51:40;;;;;;;5.60;2.45;;;16.70;99.90;;;;;;5015485;28;20498;-79
2021/05/12 01:54:08;;;;;;;4.00;2.50;;;16.70;99.90;;;;;;4992730;28;20088;-80
2021/05/12 01:56:39;;;;;;;8.02;2.35;;;16.70;99.90;;;;;;5016001;28;20064;-79
2021/05/12 01:59:05;;;;;;;5.07;2.55;;;16.70;99.90;;;;;;4997174;28;20026;-80
2021/05/12 02:01:31;;;;;;;5.22;2.92;;;16.70;99.90;;;;;;5011616;28;20082;-79
2021/05/12 02:04:05;;;;;;;3.92;2.45;;;16.80;99.90;;;;;;5017490;28;20503;-80
2021/05/12 02:06:31;;;;;;;2.72;2.28;;;16.70;99.90;;;;;;5010847;28;20022;-79
2021/05/12 02:08:59;;;;;;;2.78;2.50;;;16.70;99.90;;;;;;5002063;28;20049;-77
2021/05/12 02:11:25;;;;;;;7.68;2.95;;;16.70;99.90;;;;;;4994560;28;20022;-78
2021/05/12 02:13:50;;;;;;;5.82;2.95;;;16.70;99.90;;;;;;5020939;28;20029;-79
2021/05/12 02:16:16;;;;;;;5.82;2.67;;;16.70;99.90;;;;;;5030534;28;20029;-78
2021/05/12 02:18:42;;;;;;;5.05;2.92;;;16.70;99.90;;;;;;5009222;28;20030;-79
2021/05/12 02:21:08;;;;;;;4.68;3.08;;;16.80;99.90;;;;;;5011697;28;20058;-78
2021/05/12 02:23:34;;;;;;;3.05;2.80;;;16.80;99.90;;;;;;4998335;28;20029;-79
2021/05/12 02:26:00;;;;;;;3.60;2.92;;;16.90;99.90;;;;;;5023430;28;20034;-81
2021/05/12 02:28:26;;;;;;;4.22;3.03;;;16.90;99.90;;;;;;5001479;28;20076;-79
2021/05/12 02:30:52;;;;;;;3.00;2.58;;;16.90;99.90;;;;;;5011925;28;20037;-76
2021/05/12 02:33:18;;;;;;;4.72;3.88;;;16.80;99.90;;;;;;5012704;28;20060;-78
2021/05/12 02:35:45;;;;;;;4.72;3.08;;;16.80;99.90;;;;;;5016090;28;20041;-78
2021/05/12 02:38:11;;;;;;;5.55;3.28;;;16.80;99.90;;;;;;5006829;28;20045;-79
2021/05/12 02:40:37;;;;;;;5.13;3.25;;;16.80;99.90;;;;;;5019922;28;20014;-78
2021/05/12 02:43:04;;;;;;;7.55;2.92;;;16.80;99.90;;;;;;5002608;28;20026;-77
2021/05/12 02:45:31;;;;;;;2.83;2.60;;;16.80;99.90;;;;;;5020680;28;20053;-80
2021/05/12 02:47:59;;;;;;;4.35;2.78;;;16.90;99.90;;;;;;5020320;28;20045;-78
2021/05/12 02:50:37;;;;;;;3.72;2.88;;;17.00;99.90;;;;;;4994086;28;20093;-77
2021/05/12 02:53:06;;;;;;;2.80;2.47;;;16.90;99.90;;;;;;5019483;28;20505;-79
2021/05/12 02:55:32;;;;;;;2.55;2.35;;;17.00;99.90;;;;;;5022642;28;20091;-80
2021/05/12 02:57:59;;;;;;;3.22;2.35;;;16.90;99.90;;;;;;5020199;28;20026;-79
2021/05/12 03:00:28;;;;;;;3.40;2.63;;;16.90;99.90;;;;;;4998623;28;20026;-79
2021/05/12 03:02:54;;;;;;;2.83;2.17;;;17.00;99.90;;;;;;4994284;28;20527;-80
2021/05/12 03:05:21;;;;;;;2.72;2.53;;;16.90;99.90;;;;;;5028308;28;20026;-79
2021/05/12 03:07:47;;;;;;;6.57;1.50;;;16.80;99.90;;;;;;4997246;28;20121;-77
2021/05/12 03:10:15;;;;;;;2.03;1.30;;;16.60;99.90;;;;;;5016922;28;20074;-78
2021/05/12 03:12:41;;;;;;;4.13;1.75;;;16.60;99.90;;;;;;5008880;28;20113;-78
2021/05/12 03:15:11;;;;;;;1.83;1.08;;;16.50;99.90;;;;;;5010749;28;20038;-80
2021/05/12 03:17:37;;;;;;;2.08;0.95;;;16.40;99.90;;;;;;5016012;28;20013;-79
2021/05/12 03:20:04;;;;;;;2.08;1.20;;;16.20;99.90;;;;;;5033950;28;20007;-78
2021/05/12 03:22:30;;;;;;;6.20;1.58;;;16.10;99.90;;;;;;5002661;28;20054;-79
2021/05/12 03:24:56;;;;;;;5.55;1.45;;;16.10;99.90;;;;;;4997135;28;20041;-79
2021/05/12 03:27:22;;;;;;;7.38;1.30;;;16.00;99.90;;;;;;5015251;28;20080;-79
2021/05/12 03:29:48;;;;;;;3.90;1.83;;;16.00;99.90;;;;;;4995108;28;20094;-79
2021/05/12 03:32:13;;;;;;;1.15;1.08;;;16.10;99.90;;;;;;4991022;28;20433;-79
2021/05/12 03:34:39;;;;;;;1.98;0.80;;;16.00;99.90;;;;;;4989227;28;20037;-79
2021/05/12 03:37:05;;;;;;;1.27;1.02;;;16.00;99.90;;;;;;5017792;28;20045;-78
2021/05/12 03:39:31;;;;;;;1.85;0.90;;;16.00;99.90;;;;;;4999394;28;20029;-79
2021/05/12 03:41:56;;;;;;;1.40;0.88;;;15.90;99.90;;;;;;5022616;28;20107;-78
2021/05/12 03:44:22;;;;;;;4.13;1.50;;;15.80;99.90;;;;;;5025914;28;20093;-79
2021/05/12 03:46:48;;;;;;;4.43;1.77;;;15.70;99.90;;;;;;5025949;28;20058;-78
2021/05/12 03:49:14;;;;;;;1.88;1.00;;;15.70;99.90;;;;;;5021673;28;20026;-76
2021/05/12 03:51:40;;;;;;;4.15;1.15;;;15.70;99.90;;;;;;5008932;28;20068;-78
2021/05/12 03:54:06;;;;;;;2.53;1.48;;;15.80;99.90;;;;;;5018584;28;20042;-80
2021/05/12 03:56:32;;;;;;;2.75;1.52;;;15.80;99.90;;;;;;5003624;28;20029;-80
2021/05/12 03:58:58;;;;;;;9.60;1.90;;;15.80;99.90;;;;;;4998379;28;20548;-79
2021/05/12 04:01:24;;;;;;;2.95;1.73;;;15.70;99.90;;;;;;5019128;28;20033;-78
2021/05/12 04:03:50;;;;;;;2.58;2.17;;;15.70;99.90;;;;;;4992423;28;20033;-80
2021/05/12 04:06:15;;;;;;;3.95;2.70;;;15.70;99.90;;;;;;5002398;28;20030;-79
2021/05/12 04:08:41;;;;;;;5.88;2.30;;;15.70;99.90;;;;;;5020475;28;20037;-81
2021/05/12 04:11:07;;;;;;;4.20;2.47;;;15.60;99.90;;;;;;4998125;28;20037;-79
2021/05/12 04:13:32;;;;;;;4.68;2.67;;;15.50;99.90;;;;;;5011000;28;20029;-80
2021/05/12 04:15:58;;;;;;;4.93;2.55;;;15.50;99.90;;;;;;4999210;28;20544;-78
2021/05/12 04:18:26;;;;;;;6.68;3.08;;;15.50;99.90;;;;;;5005385;28;20026;-79
2021/05/12 04:20:52;;;;;;;3.67;2.60;;;15.50;99.90;;;;;;5002880;28;20026;-80
2021/05/12 04:23:18;;;;;;;7.10;3.05;;;15.50;99.90;;;;;;5001082;28;20413;-79
2021/05/12 04:25:44;;;;;;;4.88;2.97;;;15.50;99.90;;;;;;5014744;28;20124;-77
2021/05/12 04:28:10;;;;;;;5.15;2.55;;;15.50;99.90;;;;;;5027617;28;20033;-79
2021/05/12 04:30:36;;;;;;;2.50;1.90;;;15.30;99.90;;;;;;5005149;28;20026;-79
2021/05/12 04:33:03;;;;;;;4.05;2.70;;;15.20;99.90;;;;;;5013011;28;20072;-80
2021/05/12 04:35:30;;;;;;;2.55;1.90;;;15.20;99.90;;;;;;5002705;28;20032;-78
2021/05/12 04:37:56;;;;;;;3.25;1.88;;;15.10;99.90;;;;;;5008411;28;20026;-77
2021/05/12 04:40:22;;;;;;;8.40;2.10;;;15.10;99.90;;;;;;5013489;28;20029;-79
2021/05/12 04:42:49;;;;;;;6.53;1.80;;;15.10;99.90;;;;;;5013961;28;20072;-80
2021/05/12 04:45:16;;;;;;;1.77;1.60;;;15.10;99.90;;;;;;4999791;28;20030;-79
2021/05/12 04:47:54;;;;;;;7.05;2.85;;;15.10;99.90;;;;;;5012665;28;20110;-79
2021/05/12 04:50:20;;;;;;;2.15;1.65;;;15.10;99.90;;;;;;4995270;28;20486;-79
2021/05/12 04:52:46;;;;;;;3.55;1.88;;;15.10;99.90;;;;;;4998632;28;20034;-79
2021/05/12 04:55:12;;;;;;;2.25;1.70;;;15.00;99.90;;;;;;5014621;28;20026;-79
2021/05/12 04:57:38;;;;;;;5.50;1.92;;;15.00;99.90;;;;;;5015890;28;20026;-80
2021/05/12 05:00:05;;;;;;;2.78;1.85;;;15.00;99.90;;;;;;4997283;28;20038;-79
2021/05/12 05:02:31;;;;;;;3.25;1.98;;;15.00;99.90;;;;;;4990003;28;20447;-81
2021/05/12 05:04:56;;;;;;;5.88;3.28;;;15.00;99.90;;;;;;4995464;28;20034;-78
2021/05/12 05:07:22;;;;;;;4.75;3.50;;;15.10;99.90;;;;;;4997023;28;20056;-79
2021/05/12 05:09:48;;;;;;;3.50;2.22;;;15.10;99.90;;;;;;5012807;28;20593;-78
2021/05/12 05:12:14;;;;;;;3.60;2.50;;;15.20;99.90;;;;;;4997235;28;20021;-76
2021/05/12 05:14:39;;;;;;;9.77;2.55;;;15.20;99.90;;;;;;4993765;28;20515;-80
2021/05/12 05:17:05;;;;;;;8.73;3.20;;;15.20;99.90;;;;;;5014061;28;20038;-80
2021/05/12 05:19:31;;;;;;;12.68;6.00;;;15.30;99.90;;;;;;5016998;28;20053;-78
2021/05/12 05:21:57;;;;;;;12.98;3.17;;;15.40;99.90;;;;;;5018431;28;20041;-78
2021/05/12 05:24:23;;;;;;;6.53;2.33;;;15.40;99.90;;;;;;5019721;28;20489;-79
2021/05/12 05:26:49;;;;;;;4.30;2.10;;;15.50;99.90;;;;;;4999949;28;20034;-77
2021/05/12 05:29:15;;;;;;;3.90;2.20;;;15.60;99.90;;;;;;5018473;28;20026;-76
2021/05/12 05:31:41;;;;;;;4.82;1.80;;;15.70;99.90;;;;;;4999832;28;20022;-77
2021/05/12 05:34:06;;;;;;;2.92;2.58;;;15.80;99.90;;;;;;4997240;28;20034;-79
2021/05/12 05:36:38;;;;;;;2.65;1.75;;;15.80;99.90;;;;;;5011554;28;20018;-79
2021/05/12 05:39:04;;;;;;;5.53;2.88;;;15.90;99.90;;;;;;4986818;28;20022;-79
2021/05/12 05:41:30;;;;;;;4.03;2.15;;;16.00;99.90;;;;;;4985117;28;20101;-79
2021/05/12 05:43:56;;;;;;;6.53;2.42;;;16.10;99.90;;;;;;4993707;28;20026;-78
2021/05/12 05:46:22;;;;;;;4.00;1.75;;;16.30;99.90;;;;;;4999741;28;20030;-77
2021/05/12 05:48:47;;;;;;;2.15;1.77;;;16.30;99.90;;;;;;5018171;28;20038;-80
2021/05/12 05:51:13;;;;;;;4.15;1.85;;;16.40;99.90;;;;;;5001252;28;20618;-80
2021/05/12 05:53:39;;;;;;;2.92;1.48;;;16.50;99.90;;;;;;5007531;28;20048;-79
2021/05/12 05:56:05;;;;;;;3.85;1.50;;;16.50;99.90;;;;;;4993213;28;20060;-79
2021/05/12 05:58:30;;;;;;;4.03;2.28;;;16.50;99.90;;;;;;5007475;28;20073;-76
2021/05/12 06:00:57;;;;;;;3.78;1.70;;;16.50;99.90;;;;;;5034889;28;20117;-76
2021/05/12 06:03:30;;;;;;;3.78;1.75;;;16.50;99.90;;;;;;5030741;28;20038;-79
2021/05/12 06:06:04;;;;;;;4.60;2.00;;;16.40;99.90;;;;;;5005484;28;20123;-81
2021/05/12 06:08:31;;;;;;;3.72;1.70;;;16.40;99.90;;;;;;5014790;28;20026;-81
2021/05/12 06:11:09;;;;;;;7.65;2.00;;;16.40;99.90;;;;;;5015126;28;20030;-79
2021/05/12 06:13:35;;;;;;;6.95;2.83;;;16.40;99.90;;;;;;4995406;28;20026;-79
2021/05/12 06:16:03;;;;;;;6.20;2.45;;;16.50;99.90;;;;;;5016351;28;20053;-78
2021/05/12 06:18:29;;;;;;;6.55;3.42;;;16.60;99.90;;;;;;5021212;28;20053;-79
2021/05/12 06:20:54;;;;;;;6.88;2.13;;;16.70;99.90;;;;;;5020115;28;20057;-79
2021/05/12 06:23:20;;;;;;;4.18;2.55;;;16.70;99.90;;;;;;5021272;28;20392;-80
2021/05/12 06:25:48;;;;;;;4.07;1.92;;;16.70;99.90;;;;;;5020120;28;20547;-79
2021/05/12 06:28:16;;;;;;;4.10;1.67;;;16.80;99.90;;;;;;4985815;28;20033;-78
2021/05/12 06:30:48;;;;;;;5.75;1.80;;;16.90;99.90;;;;;;5002441;28;20093;-81
2021/05/12 06:33:13;;;;;;;;;;;17.00;99.90;;;;;;5019619;28;20018;-80
2021/05/12 06:35:39;;;;;;;4.05;1.92;;;17.10;99.90;;;;;;5002904;28;19964;-78
2021/05/12 06:38:05;;;;;;;3.63;1.45;;;17.20;99.90;;;;;;5015947;28;20488;-78
2021/05/12 06:40:30;;;;;;;3.28;1.70;;;17.20;99.90;;;;;;4994328;28;20025;-79
2021/05/12 06:43:00;;;;;;;6.82;1.52;;;17.40;99.90;;;;;;5022882;28;20080;-79
2021/05/12 06:45:26;;;;;;;4.55;2.08;;;17.50;99.90;;;;;;5024818;28;20021;-79
2021/05/12 06:47:55;;;;;;;13.00;2.88;;;17.50;99.90;;;;;;5005974;28;20065;-78
2021/05/12 06:50:23;;;;;;;2.10;1.80;;;17.40;99.90;;;;;;5021105;28;20038;-80
2021/05/12 06:52:56;;;;;;;5.18;2.35;;;17.40;99.90;;;;;;5003522;28;20030;-80
2021/05/12 06:55:24;;;;;;;5.25;1.77;;;17.40;99.90;;;;;;5004887;28;20487;-79
2021/05/12 06:57:49;;;;;;;1.50;1.40;;;17.30;99.90;;;;;;5022262;28;20032;-78
2021/05/12 07:00:16;;;;;;;2.53;1.77;;;17.20;99.90;;;;;;5022307;28;20062;-79
2021/05/12 07:02:42;;;;;;;2.83;2.13;;;17.30;99.90;;;;;;5023100;28;20499;-80
2021/05/12 07:05:09;;;;;;;3.97;2.10;;;17.40;99.90;;;;;;5023545;28;20395;-80
2021/05/12 07:07:35;;;;;;;2.28;1.30;;;17.50;99.90;;;;;;5003067;28;20562;-79
2021/05/12 07:10:01;;;;;;;1.60;1.48;;;17.50;99.90;;;;;;5005744;28;20038;-79
2021/05/12 07:12:27;;;;;;;3.03;1.42;;;17.60;99.90;;;;;;5006233;28;20419;-80
2021/05/12 07:14:52;;;;;;;2.58;1.23;;;17.60;99.90;;;;;;5002775;28;20026;-78
2021/05/12 07:17:18;;;;;;;2.78;1.27;;;17.70;99.90;;;;;;5018697;28;20086;-80
2021/05/12 07:19:44;;;;;;;2.65;1.55;;;17.80;99.90;;;;;;5002267;28;20084;-79
2021/05/12 07:22:10;;;;;;;4.20;3.80;;;17.90;99.90;;;;;;5021985;28;20022;-78
2021/05/12 07:24:35;;;;;;;3.25;2.08;;;17.90;99.90;;;;;;5021515;28;20384;-79
2021/05/12 07:27:01;;;;;;;1.42;1.20;;;17.80;99.90;;;;;;5021205;28;20109;-78
2021/05/12 07:29:27;;;;;;;1.45;1.35;;;17.60;99.90;;;;;;5010450;28;20038;-79
2021/05/12 07:31:54;;;;;;;6.72;1.63;;;17.60;99.90;;;;;;4999379;28;20037;-79
2021/05/12 07:34:20;;;;;;;1.58;1.45;;;17.70;99.90;;;;;;5011071;28;20022;-79
2021/05/12 07:36:46;;;;;;;3.80;2.10;;;17.70;99.90;;;;;;5001310;28;20172;-78
2021/05/12 07:39:12;;;;;;;3.65;1.98;;;17.70;99.90;;;;;;5019161;28;20022;-80
2021/05/12 07:41:38;;;;;;;5.28;1.70;;;17.90;99.90;;;;;;5019062;28;20033;-78
2021/05/12 07:44:04;;;;;;;6.45;1.55;;;18.00;99.90;;;;;;5002399;28;20484;-71
2021/05/12 07:46:31;;;;;;;5.90;1.55;;;18.00;99.90;;;;;;5012551;28;20060;-71
2021/05/12 07:48:57;;;;;;;6.00;1.63;;;18.00;99.90;;;;;;4985113;28;20062;-71
2021/05/12 07:51:23;;;;;;;4.18;2.28;;;18.00;99.90;;;;;;4981134;28;20050;-70
2021/05/12 07:53:49;;;;;;;1.40;1.30;;;18.20;99.90;;;;;;5012338;28;20566;-70
2021/05/12 07:56:15;;;;;;;4.07;1.65;;;18.40;99.90;;;;;;4994777;28;20018;-71
2021/05/12 07:58:41;;;;;;;3.85;1.73;;;18.20;99.90;;;;;;4993910;28;20030;-72
2021/05/12 08:01:20;;;;;;;4.28;1.58;;;18.10;99.90;;;;;;5012132;28;20026;-70
2021/05/12 08:03:46;;;;;;;6.68;2.78;;;18.10;99.90;;;;;;4994113;28;20026;-70
2021/05/12 08:06:11;;;;;;;4.07;1.98;;;17.90;99.90;;;;;;5011970;28;20024;-71
2021/05/12 08:08:38;;;;;;;3.28;2.33;;;17.50;99.90;;;;;;4994265;28;20089;-73
2021/05/12 08:11:07;;;;;;;3.38;2.45;;;17.30;99.90;;;;;;5011368;28;20028;-72
2021/05/12 08:13:33;;;;;;;2.90;1.92;;;17.10;99.90;;;;;;4992837;28;20484;-71
2021/05/12 08:16:00;;;;;;;3.70;2.70;;;17.00;99.90;;;;;;5007796;28;20034;-73
2021/05/12 08:18:25;;;;;;;3.17;2.40;;;16.80;99.90;;;;;;5005070;28;20113;-72
2021/05/12 08:20:54;;;;;;;4.85;3.00;;;16.70;99.90;;;;;;4992726;28;20104;-70
2021/05/12 08:23:20;;;;;;;7.28;2.83;;;16.70;99.90;;;;;;5011015;28;20045;-71
2021/05/12 08:25:46;;;;;;;2.88;2.10;;;16.80;99.90;;;;;;4993873;28;20067;-72
2021/05/12 08:28:13;;;;;;;6.45;2.55;;;16.90;99.90;;;;;;5011644;28;20500;-71
2021/05/12 08:30:45;;;;;;;2.95;2.75;;;16.80;99.90;;;;;;5005571;28;20129;-71
2021/05/12 08:33:21;;;;;;;6.70;2.92;;;16.80;99.90;;;;;;4988882;28;20018;-72
2021/05/12 08:35:47;;;;;;;7.35;2.65;;;17.10;99.90;;;;;;4994190;28;20034;-72
2021/05/12 08:38:25;;;;;;;2.70;2.20;;;17.20;99.90;;;;;;4984959;28;20038;-72
2021/05/12 08:40:54;;;;;;;2.58;2.38;;;17.50;99.90;;;;;;5000089;28;20101;-71
2021/05/12 08:43:20;;;;;;;6.00;2.85;;;17.70;99.90;;;;;;5010134;28;20041;-71
2021/05/12 08:45:47;;;;;;;3.13;2.10;;;17.90;99.90;;;;;;4992959;28;20034;-70
2021/05/12 08:48:17;;;;;;;6.85;2.60;;;18.20;99.90;;;;;;5013736;28;20036;-73
2021/05/12 08:50:45;;;;;;;4.78;2.88;;;18.20;99.90;;;;;;5017681;28;20476;-73
2021/05/12 08:53:11;;;;;;;2.55;2.33;;;18.10;99.90;;;;;;5012657;28;20104;-72
2021/05/12 08:55:38;;;;;;;7.85;3.10;;;18.10;99.90;;;;;;4993473;28;20033;-72
2021/05/12 08:58:04;;;;;;;3.90;3.35;;;17.90;99.90;;;;;;5011369;28;20030;-71
2021/05/12 09:00:30;;;;;;;3.50;2.75;;;17.40;99.90;;;;;;4993839;28;20030;-71
2021/05/12 09:02:59;;;;;;;4.75;3.08;;;17.00;99.90;;;;;;4991812;28;20575;-70
2021/05/12 09:05:25;;;;;;;4.50;3.38;;;16.80;99.90;;;;;;5006623;28;20041;-72
2021/05/12 09:07:51;;;;;;;7.32;4.25;;;16.60;99.90;;;;;;5010964;28;20065;-73
2021/05/12 09:10:17;;;;;;;3.47;3.17;;;16.60;99.90;;;;;;5008867;28;20053;-70
2021/05/12 09:12:46;;;;;;;5.90;3.72;;;16.50;99.90;;;;;;4993079;28;20018;-71
2021/05/12 09:15:15;;;;;;;6.95;4.13;;;16.40;99.90;;;;;;4992219;28;20076;-71
2021/05/12 09:17:43;;;;;;;4.32;3.30;;;16.40;99.90;;;;;;5010809;28;20021;-71
2021/05/12 09:20:22;;;;;;;9.85;3.47;;;16.30;99.90;;;;;;4993577;28;20399;-72
2021/05/12 09:22:48;;;;;;;4.30;2.88;;;16.20;99.90;;;;;;4979351;28;20104;-72
2021/05/12 09:25:18;;;;;;;7.40;3.42;;;16.10;99.90;;;;;;4987422;28;20104;-72
2021/05/12 09:27:51;;;;;;;15.10;3.65;;;16.10;99.90;;;;;;4993044;28;20488;-72
2021/05/12 09:30:21;;;;;;;10.15;3.72;;;16.10;99.90;;;;;;5008250;28;20072;-74
2021/05/12 09:32:47;;;;;;;6.03;4.10;;;15.90;99.90;;;;;;5013085;28;20028;-71
2021/05/12 09:35:15;;;;;;;9.55;3.90;;;15.80;99.90;;;;;;4992749;28;20105;-73
2021/05/12 09:37:43;;;;;;;11.90;4.20;;;15.80;99.90;;;;;;4992921;28;20106;-72
2021/05/12 09:40:19;;;;;;;9.77;3.97;;;15.70;99.90;;;;;;5009384;28;20026;-72
2021/05/12 09:42:58;;;;;;;5.72;3.22;;;15.70;99.90;;;;;;4992966;28;20032;-71
2021/05/12 09:45:24;;;;;;;5.10;3.40;;;15.60;99.90;;;;;;5011010;28;20090;-71
2021/05/12 09:47:53;;;;;;;3.47;3.13;;;15.70;99.90;;;;;;5008175;28;20080;-72
2021/05/12 09:50:30;;;;;;;14.48;3.72;;;15.80;99.90;;;;;;5010513;28;20030;-72
2021/05/12 09:53:11;;;;;;;9.40;3.72;;;15.80;99.90;;;;;;4992512;28;20415;-72
2021/05/12 09:55:45;;;;;;;7.72;4.50;;;15.80;99.90;;;;;;4991877;28;20041;-71
2021/05/12 09:58:13;;;;;;;15.38;4.72;;;15.80;99.90;;;;;;5008425;28;20419;-72
2021/05/12 10:00:40;;;;;;;21.00;4.53;;;15.90;99.90;;;;;;4994039;28;20022;-72
2021/05/12 10:03:06;;;;;;;6.20;4.35;;;15.90;99.90;;;;;;5011597;28;20014;-72
2021/05/12 10:05:54;;;;;;;5.05;3.72;;;15.90;99.90;;;;;;5009251;28;20488;-70
2021/05/12 10:08:27;;;;;;;5.32;4.35;;;15.80;99.90;;;;;;5005001;28;20030;-69
2021/05/12 10:10:57;;;;;;;6.63;4.88;;;15.80;99.90;;;;;;5009855;28;20077;-70
2021/05/12 10:13:24;;;;;;;4.80;3.10;;;15.80;99.90;;;;;;4989209;28;20388;-71
2021/05/12 10:15:50;;;;;;;6.32;4.15;;;15.70;99.90;;;;;;4993057;28;20044;-63
2021/05/12 10:18:16;;;;;;;7.00;4.50;;;15.80;99.90;;;;;;5010910;28;20030;-65
2021/05/12 10:20:42;;;;;;;13.65;5.07;;;15.80;99.90;;;;;;4992723;28;20446;-65
2021/05/12 10:23:08;;;;;;;7.90;5.95;;;15.60;99.90;;;;;;5010651;28;20077;-65
2021/05/12 10:25:36;;;;;;;10.18;5.82;;;15.70;99.90;;;;;;5010368;28;20042;-64
2021/05/12 10:28:03;;;;;;;9.93;4.80;;;15.70;99.90;;;;;;5009986;28;20034;-65
2021/05/12 10:30:29;;;;;;;6.85;3.85;;;15.80;99.90;;;;;;5010529;28;20025;-63
2021/05/12 10:32:57;;;;;;;4.82;3.45;;;15.80;99.90;;;;;;5010297;28;20022;-72
2021/05/12 10:35:34;;;;;;;9.60;3.45;;;15.90;99.90;;;;;;5011557;28;20503;-74
2021/05/12 10:38:02;;;;;;;6.70;4.32;;;15.90;99.90;;;;;;4993858;28;20512;-74
2021/05/12 10:40:32;;;;;;;4.10;3.70;;;15.80;99.90;;;;;;5010597;28;20128;-73
2021/05/12 10:43:18;;;;;;;11.25;5.18;;;15.90;99.90;;;;;;5010613;28;20030;-73
2021/05/12 10:48:44;;;;;;;6.05;3.92;;;16.00;99.90;;;;;;5013166;28;20054;-73
2021/05/12 10:51:23;;;;;;;5.88;4.25;;;16.00;99.90;;;;;;5012980;28;20029;-74
2021/05/12 10:53:56;;;;;;;8.38;5.32;;;16.00;99.90;;;;;;5005773;28;20049;-72
2021/05/12 10:56:36;;;;;;;11.10;5.05;;;15.90;99.90;;;;;;4994830;28;20033;-74
2021/05/12 10:59:06;;;;;;;6.88;4.90;;;15.90;99.90;;;;;;5014495;28;20037;-74
2021/05/12 11:01:52;;;;;;;6.32;5.72;;;15.90;99.90;;;;;;5010728;28;20522;-74
2021/05/12 11:04:21;;;;;;;11.88;6.88;;;15.90;99.90;;;;;;4992596;28;20393;-74
2021/05/12 11:06:55;;;;;;;10.48;5.63;;;15.80;99.90;;;;;;5003880;28;20086;-73
2021/05/12 11:09:25;;;;;;;11.95;7.80;;;15.70;99.90;;;;;;5013479;28;20137;-73
2021/05/12 11:12:05;;;;;;;8.70;6.63;;;15.70;99.90;;;;;;5013760;28;20022;-72
2021/05/12 11:14:38;;;;;;;8.70;5.60;;;15.50;99.90;;;;;;4995986;28;20069;-74
2021/05/12 11:17:14;;;;;;;9.65;7.45;;;15.40;99.90;;;;;;5014038;28;20029;-77
2021/05/12 11:19:44;;;;;;;11.18;10.00;;;15.30;99.90;;;;;;5012979;28;20026;-73
2021/05/12 11:22:30;;;;;;;12.60;9.15;;;15.20;99.90;;;;;;5013175;28;20022;-73
2021/05/12 11:25:45;;;;;;;12.20;10.82;;;15.20;99.90;;;;;;5006346;28;20018;-74
2021/05/12 11:33:06;;;;;;;9.68;7.75;;;15.50;99.90;;;;;;5013452;28;20053;-73
2021/05/12 11:35:34;;;;;;;9.48;7.40;;;15.50;99.90;;;;;;5012185;28;20025;-73
2021/05/12 11:38:00;;;;;;;9.43;7.35;;;15.70;99.90;;;;;;5006267;28;20022;-72
2021/05/12 11:40:30;;;;;;;6.22;5.05;;;15.80;99.90;;;;;;4994260;28;20030;-73
2021/05/12 11:42:57;;;;;;;6.75;5.90;;;15.80;99.90;;;;;;5012689;28;20087;-74
2021/05/12 11:45:23;;;;;;;6.05;5.50;;;15.80;99.90;;;;;;5004395;28;20029;-74
2021/05/12 11:48:01;;;;;;;6.00;5.40;;;15.90;99.90;;;;;;5014084;28;20038;-74
2021/05/12 11:50:29;;;;;;;6.55;5.10;;;16.00;99.90;;;;;;5012326;28;20026;-74
2021/05/12 11:52:56;;;;;;;14.77;4.50;;;16.10;99.90;;;;;;5011983;28;20100;-78
2021/05/12 11:55:29;;;;;;;9.18;5.22;;;16.00;99.90;;;;;;4993552;28;20084;-75
2021/05/12 11:57:55;;;;;;;6.63;5.55;;;15.90;99.90;;;;;;4994133;28;20052;-75
2021/05/12 12:00:27;;;;;;;7.13;5.78;;;15.80;99.90;;;;;;5012390;28;20022;-74
2021/05/12 12:02:58;;;;;;;11.50;7.95;;;15.80;99.90;;;;;;4994191;28;20025;-75
2021/05/12 12:05:26;;;;;;;7.90;4.90;;;15.70;99.90;;;;;;4994247;28;20038;-74
2021/05/12 12:08:09;;;;;;;12.38;5.40;;;15.70;99.90;;;;;;4994398;28;20026;-74
2021/05/12 12:10:35;;;;;;;8.07;5.40;;;15.80;99.90;;;;;;4994123;28;20506;-67
2021/05/12 12:13:02;;;;;;;6.70;6.00;;;16.00;99.90;;;;;;5012407;28;20101;-67
2021/05/12 12:15:28;;;;;;;6.70;6.18;;;16.10;99.90;;;;;;5011517;28;20407;-66
2021/05/12 12:17:53;;;;;;;6.40;5.72;;;16.20;99.90;;;;;;5012041;28;20025;-75
2021/05/12 12:20:30;;;;;;;7.35;6.38;;;16.10;99.90;;;;;;4994431;28;20562;-75
2021/05/12 12:22:57;;;;;;;7.82;7.05;;;16.10;99.90;;;;;;4994875;28;20030;-74
2021/05/12 12:25:29;;;;;;;9.60;5.97;;;16.10;99.90;;;;;;5011588;28;20030;-74
2021/05/12 12:27:56;;;;;;;6.50;5.50;;;16.20;99.90;;;;;;5012124;28;20025;-75
2021/05/12 12:30:22;;;;;;;5.50;5.03;;;16.50;99.90;;;;;;5004977;28;20106;-75
2021/05/12 12:32:47;;;;;;;5.65;5.20;;;16.90;99.90;;;;;;4981147;28;20038;-74
2021/05/12 12:35:13;;;;;;;8.45;5.53;;;17.40;99.90;;;;;;4987604;28;20021;-74
2021/05/12 12:37:43;;;;;;;4.97;4.57;;;17.80;99.90;;;;;;5012067;28;20028;-75
2021/05/12 12:40:13;;;;;;;14.15;5.63;;;18.40;99.90;;;;;;4986717;28;20030;-75
2021/05/12 12:42:44;;;;;;;6.97;6.30;;;18.70;99.90;;;;;;5003678;28;20071;-76
2021/05/12 12:45:35;;;;;;;7.35;6.65;;;18.90;99.90;;;;;;5011497;28;20343;-76
2021/05/12 12:48:14;;;;;;;7.88;6.28;;;18.90;99.90;;;;;;5006221;28;20033;-77
2021/05/12 12:50:41;;;;;;;15.02;8.00;;;18.90;99.90;;;;;;4986876;28;20114;-76
2021/05/12 12:53:10;;;;;;;7.20;6.60;;;18.80;99.90;;;;;;5008536;28;20078;-77
2021/05/12 12:55:44;;;;;;;9.10;8.18;;;19.00;99.90;;;;;;5001509;28;20408;-75
2021/05/12 12:58:34;;;;;;;9.70;8.85;;;19.40;99.90;;;;;;4991065;28;20026;-78